Time;durP1;ratioP1;P1;durP2;ratioP2;P2;SDS_P1;SDS_P2;PMS_P1;PMS_P2;Temp;Humidity;BMP_temperature;BMP_pressure;BME280_temperature;BME280_humidity;BME280_pressure;Samples;Min_cycle;Max_cycle;Signal;HPM_P1;HPM_P2
2023/09/27 00:04:51;;;;;;;1.83;1.30;;;;;;;;;;10267544;28;20039;-77
2023/09/27 00:09:54;;;;;;;1.50;1.10;;;;;;;;;;10274987;28;20818;-77
2023/09/27 00:15:01;;;;;;;1.70;1.20;;;;;;;;;;10279499;28;20036;-77
2023/09/27 00:20:07;;;;;;;1.58;1.08;;;;;;;;;;10267708;28;20126;-77
2023/09/27 00:25:11;;;;;;;1.20;1.10;;;;;;;;;;10263559;28;20067;-77
2023/09/27 00:30:16;;;;;;;1.58;1.20;;;;;;;;;;10265614;28;20110;-77
2023/09/27 00:35:21;;;;;;;1.70;1.13;;;;;;;;;;10277045;28;20144;-77
2023/09/27 00:40:25;;;;;;;1.30;1.20;;;;;;;;;;10260639;28;20112;-77
2023/09/27 00:45:30;;;;;;;1.42;1.20;;;;;;;;;;10253840;28;20047;-77
2023/09/27 00:50:33;;;;;;;1.45;1.30;;;;;;;;;;10262524;28;20054;-77
2023/09/27 00:55:37;;;;;;;1.95;1.30;;;;;;;;;;10255632;28;20110;-77
2023/09/27 01:00:43;;;;;;;1.50;1.30;;;;;;;;;;10274668;28;20058;-77
2023/09/27 01:05:48;;;;;;;2.95;1.27;;;;;;;;;;10274395;28;20051;-76
2023/09/27 01:10:52;;;;;;;2.50;1.50;;;;;;;;;;10264159;28;20129;-77
2023/09/27 01:15:57;;;;;;;2.20;1.40;;;;;;;;;;10261570;28;20079;-77
2023/09/27 01:21:01;;;;;;;2.42;1.02;;;;;;;;;;10262240;28;20059;-77
2023/09/27 01:26:09;;;;;;;1.70;1.25;;;;;;;;;;10241712;28;20039;-77
2023/09/27 01:31:12;;;;;;;1.30;1.10;;;;;;;;;;10268340;28;20139;-77
2023/09/27 01:36:16;;;;;;;2.95;1.10;;;;;;;;;;10265698;28;20410;-77
2023/09/27 01:41:20;;;;;;;1.35;1.10;;;;;;;;;;10298961;28;20051;-78
2023/09/27 01:46:23;;;;;;;1.73;1.20;;;;;;;;;;10288722;28;20134;-77
2023/09/27 01:51:27;;;;;;;2.03;1.10;;;;;;;;;;10286081;28;20512;-77
2023/09/27 01:56:31;;;;;;;2.50;1.15;;;;;;;;;;10283706;28;20122;-77
2023/09/27 02:01:35;;;;;;;1.30;1.20;;;;;;;;;;10268107;28;20047;-77
2023/09/27 02:06:38;;;;;;;2.08;1.00;;;;;;;;;;10282898;28;20059;-77
2023/09/27 02:11:42;;;;;;;1.90;1.45;;;;;;;;;;10283146;28;20051;-77
2023/09/27 02:16:47;;;;;;;1.70;1.17;;;;;;;;;;10257389;28;20150;-76
2023/09/27 02:21:50;;;;;;;1.80;1.60;;;;;;;;;;10255850;28;20047;-77
2023/09/27 02:26:55;;;;;;;2.20;1.67;;;;;;;;;;10264212;28;20496;-77
2023/09/27 02:31:58;;;;;;;3.58;1.63;;;;;;;;;;10278703;28;20731;-77
2023/09/27 02:37:02;;;;;;;4.10;1.70;;;;;;;;;;10269918;28;20061;-77
2023/09/27 02:42:06;;;;;;;2.17;1.38;;;;;;;;;;10271505;28;20539;-77
2023/09/27 02:47:10;;;;;;;2.08;1.33;;;;;;;;;;10275013;28;20551;-77
2023/09/27 02:52:13;;;;;;;2.60;1.92;;;;;;;;;;10260723;28;20113;-77
2023/09/27 02:57:19;;;;;;;2.28;1.40;;;;;;;;;;10264083;28;20081;-77
2023/09/27 03:02:23;;;;;;;2.20;1.40;;;;;;;;;;10259328;28;20508;-77
2023/09/27 03:07:26;;;;;;;1.92;1.45;;;;;;;;;;10254351;28;20504;-76
2023/09/27 03:12:31;;;;;;;2.03;1.83;;;;;;;;;;10260556;28;20402;-76
2023/09/27 03:17:35;;;;;;;1.40;1.23;;;;;;;;;;10255513;28;20102;-77
2023/09/27 03:22:38;;;;;;;1.60;1.42;;;;;;;;;;10256988;28;20094;-76
2023/09/27 03:27:43;;;;;;;2.80;1.33;;;;;;;;;;10256841;28;20102;-77
2023/09/27 03:32:47;;;;;;;1.60;1.50;;;;;;;;;;10256558;28;20509;-76
2023/09/27 03:37:50;;;;;;;2.10;1.60;;;;;;;;;;10250219;28;20054;-77
2023/09/27 03:42:55;;;;;;;1.83;1.63;;;;;;;;;;10261399;28;20681;-77
2023/09/27 03:47:58;;;;;;;1.30;1.20;;;;;;;;;;10269003;28;20811;-76
2023/09/27 03:53:02;;;;;;;2.33;1.70;;;;;;;;;;10251655;28;20047;-77
2023/09/27 03:58:06;;;;;;;2.28;1.85;;;;;;;;;;10235959;28;20055;-77
2023/09/27 04:03:09;;;;;;;2.88;1.65;;;;;;;;;;10249760;28;20057;-77
2023/09/27 04:08:13;;;;;;;4.40;3.05;;;;;;;;;;10254155;28;20058;-76
2023/09/27 04:13:17;;;;;;;7.40;3.10;;;;;;;;;;10247496;28;20039;-77
2023/09/27 04:18:20;;;;;;;3.35;2.30;;;;;;;;;;10263928;28;20138;-77
2023/09/27 04:23:24;;;;;;;2.83;2.00;;;;;;;;;;10273775;28;20666;-77
2023/09/27 04:28:29;;;;;;;3.00;2.28;;;;;;;;;;10259620;28;20139;-77
2023/09/27 04:33:33;;;;;;;3.10;2.08;;;;;;;;;;10260892;28;20134;-77
2023/09/27 04:38:36;;;;;;;2.75;1.70;;;;;;;;;;10283163;28;20094;-77
2023/09/27 04:43:41;;;;;;;1.77;1.48;;;;;;;;;;10273821;28;20043;-77
2023/09/27 04:48:45;;;;;;;1.75;1.45;;;;;;;;;;10266599;28;20416;-77
2023/09/27 04:53:48;;;;;;;2.33;1.85;;;;;;;;;;10270609;28;20546;-77
2023/09/27 04:58:53;;;;;;;2.30;1.88;;;;;;;;;;10268204;28;20483;-77
2023/09/27 05:03:56;;;;;;;2.78;2.20;;;;;;;;;;10271379;28;20047;-76
2023/09/27 05:08:59;;;;;;;2.30;1.80;;;;;;;;;;10289236;28;20073;-76
2023/09/27 05:14:05;;;;;;;2.33;2.13;;;;;;;;;;10275090;28;20066;-77
2023/09/27 05:19:09;;;;;;;2.53;2.00;;;;;;;;;;10267625;28;20142;-76
2023/09/27 05:24:12;;;;;;;2.13;1.85;;;;;;;;;;10278474;28;20543;-77
2023/09/27 05:29:17;;;;;;;2.00;1.80;;;;;;;;;;10263030;28;20043;-77
2023/09/27 05:34:20;;;;;;;2.40;2.00;;;;;;;;;;10267641;28;20150;-77
2023/09/27 05:39:23;;;;;;;1.92;1.67;;;;;;;;;;10272307;28;20097;-77
2023/09/27 05:44:28;;;;;;;2.20;2.00;;;;;;;;;;10291360;28;20141;-78
2023/09/27 05:49:31;;;;;;;3.58;2.08;;;;;;;;;;10271997;28;20488;-76
2023/09/27 05:54:35;;;;;;;2.40;1.58;;;;;;;;;;10268440;28;20421;-77
2023/09/27 05:59:44;;;;;;;2.47;1.52;;;;;;;;;;10277200;28;20489;-77
2023/09/27 06:04:48;;;;;;;2.35;1.52;;;;;;;;;;10267260;28;20043;-77
2023/09/27 06:09:51;;;;;;;3.28;1.55;;;;;;;;;;10265697;28;20051;-78
2023/09/27 06:14:56;;;;;;;2.10;1.70;;;;;;;;;;10289698;28;20053;-78
2023/09/27 06:20:06;;;;;;;2.60;1.98;;;;;;;;;;10263273;28;20384;-78
2023/09/27 06:25:09;;;;;;;2.58;1.67;;;;;;;;;;10275141;28;20047;-78
2023/09/27 06:30:15;;;;;;;2.03;1.60;;;;;;;;;;10271815;28;20053;-77
2023/09/27 06:35:19;;;;;;;3.83;1.75;;;;;;;;;;10272602;28;20157;-77
2023/09/27 06:40:24;;;;;;;2.35;2.00;;;;;;;;;;10264719;28;20327;-77
2023/09/27 06:45:29;;;;;;;9.18;1.80;;;;;;;;;;10268325;28;20055;-77
2023/09/27 06:50:32;;;;;;;1.45;1.35;;;;;;;;;;10268357;28;20382;-77
2023/09/27 06:55:36;;;;;;;2.95;1.45;;;;;;;;;;10271910;28;20109;-78
2023/09/27 07:00:42;;;;;;;1.73;1.42;;;;;;;;;;10276479;28;20527;-77
2023/09/27 07:05:47;;;;;;;1.70;1.60;;;;;;;;;;10279504;28;20401;-77
2023/09/27 07:10:50;;;;;;;2.58;1.50;;;;;;;;;;10277968;28;20047;-77
2023/09/27 07:15:55;;;;;;;1.50;1.38;;;;;;;;;;10271766;28;20047;-77
2023/09/27 07:20:58;;;;;;;1.92;1.73;;;;;;;;;;10266268;28;20504;-77
2023/09/27 07:26:04;;;;;;;1.77;1.58;;;;;;;;;;10275307;28;20465;-77
2023/09/27 07:31:09;;;;;;;;;;;;;;;;;;10274247;28;20061;-77
2023/09/27 07:36:14;;;;;;;1.45;1.33;;;;;;;;;;10272172;28;19922;-77
2023/09/27 07:41:18;;;;;;;1.27;1.17;;;;;;;;;;10350121;23;20057;-77
2023/09/27 07:46:22;;;;;;;2.67;1.58;;;;;;;;;;10274426;28;20074;-77
2023/09/27 07:51:26;;;;;;;1.40;1.30;;;;;;;;;;10278439;28;20063;-77
2023/09/27 07:56:36;;;;;;;2.40;1.98;;;;;;;;;;10269677;28;20051;-77
2023/09/27 08:01:41;;;;;;;1.73;1.55;;;;;;;;;;10278342;28;20047;-78
2023/09/27 08:06:46;;;;;;;2.10;1.55;;;;;;;;;;10267255;28;20062;-78
2023/09/27 08:11:50;;;;;;;1.85;1.58;;;;;;;;;;10280120;28;20046;-78
2023/09/27 08:16:55;;;;;;;1.65;1.48;;;;;;;;;;10280822;28;20062;-78
2023/09/27 08:21:58;;;;;;;1.48;1.38;;;;;;;;;;10272482;28;20048;-77
2023/09/27 08:27:01;;;;;;;2.65;1.75;;;;;;;;;;10267905;28;20043;-78
2023/09/27 08:32:06;;;;;;;1.60;1.50;;;;;;;;;;10260435;28;20051;-78
2023/09/27 08:37:11;;;;;;;1.70;1.50;;;;;;;;;;10278738;28;20070;-77
2023/09/27 08:42:14;;;;;;;1.48;1.38;;;;;;;;;;10245451;28;20125;-78
2023/09/27 08:47:20;;;;;;;2.72;1.77;;;;;;;;;;10291537;28;20081;-78
2023/09/27 08:52:25;;;;;;;1.65;1.38;;;;;;;;;;10274056;28;20055;-78
2023/09/27 08:57:29;;;;;;;1.85;1.40;;;;;;;;;;10277802;28;20704;-77
2023/09/27 09:02:35;;;;;;;1.80;1.45;;;;;;;;;;10275240;28;20047;-77
2023/09/27 09:07:40;;;;;;;1.60;1.40;;;;;;;;;;10264617;28;20584;-79
2023/09/27 10:45:57;;;;;;;1.40;1.10;;;;;;;;;;10544458;27;20349;-76
2023/09/27 10:51:00;;;;;;;2.17;1.80;;;;;;;;;;10493388;28;20102;-77
2023/09/27 10:56:04;;;;;;;1.88;1.42;;;;;;;;;;10478213;28;20044;-77
2023/09/27 11:01:11;;;;;;;1.30;1.10;;;;;;;;;;10482392;28;20053;-77
2023/09/27 11:06:15;;;;;;;1.38;1.27;;;;;;;;;;10480749;28;20035;-76
2023/09/27 11:11:19;;;;;;;1.25;1.15;;;;;;;;;;10482020;28;20044;-77
2023/09/27 11:16:24;;;;;;;2.33;1.13;;;;;;;;;;10479998;28;20049;-76
2023/09/27 11:21:27;;;;;;;;;;;;;;;;;;10479771;28;20039;-77
2023/09/27 11:26:33;;;;;;;3.13;1.33;;;;;;;;;;10516030;28;20012;-76
2023/09/27 11:31:39;;;;;;;2.93;1.10;;;;;;;;;;10504557;28;20220;-76
2023/09/27 11:36:43;;;;;;;1.25;1.10;;;;;;;;;;10525238;28;20154;-77
2023/09/27 11:41:47;;;;;;;2.05;0.90;;;;;;;;;;10522054;28;20135;-77
2023/09/27 11:47:03;;;;;;;3.72;1.30;;;;;;;;;;10518073;28;20036;-77
2023/09/27 11:52:10;;;;;;;1.02;0.90;;;;;;;;;;10518619;28;20131;-77
2023/09/27 11:57:13;;;;;;;1.65;0.98;;;;;;;;;;10488484;28;20131;-77
2023/09/27 12:02:18;;;;;;;1.23;0.80;;;;;;;;;;10488642;28;20037;-76
2023/09/27 12:07:29;;;;;;;0.80;0.80;;;;;;;;;;10493160;28;20045;-78
2023/09/27 12:12:33;;;;;;;1.15;0.80;;;;;;;;;;10477750;28;20502;-78
2023/09/27 12:17:38;;;;;;;0.90;0.60;;;;;;;;;;10491949;28;20066;-77
2023/09/27 12:22:42;;;;;;;1.23;0.60;;;;;;;;;;10471798;28;20111;-78
2023/09/27 12:27:45;;;;;;;0.68;0.68;;;;;;;;;;10492668;28;20048;-77
2023/09/27 12:32:51;;;;;;;2.90;1.15;;;;;;;;;;10474484;28;20045;-77
2023/09/27 12:37:54;;;;;;;;;;;;;;;;;;10495112;28;20051;-77
2023/09/27 12:42:57;;;;;;;1.20;1.10;;;;;;;;;;10490917;28;20305;-77
2023/09/27 12:48:02;;;;;;;1.00;0.80;;;;;;;;;;10472667;28;20513;-79
2023/09/27 12:53:05;;;;;;;1.40;1.00;;;;;;;;;;10493180;28;20044;-77
2023/09/27 12:58:09;;;;;;;1.98;1.00;;;;;;;;;;10472651;28;20036;-77
2023/09/27 13:03:13;;;;;;;1.10;0.90;;;;;;;;;;10486066;28;20363;-77
2023/09/27 13:08:16;;;;;;;2.47;1.20;;;;;;;;;;10499413;28;20094;-77
2023/09/27 13:13:20;;;;;;;1.65;1.15;;;;;;;;;;10501651;28;20139;-77
2023/09/27 13:18:24;;;;;;;1.15;1.05;;;;;;;;;;10502796;28;20044;-77
2023/09/27 13:23:28;;;;;;;1.05;0.93;;;;;;;;;;10500120;28;20060;-77
2023/09/27 13:28:31;;;;;;;2.85;1.27;;;;;;;;;;10489644;28;20052;-77
2023/09/27 13:33:36;;;;;;;1.77;1.25;;;;;;;;;;10487548;28;20043;-77
2023/09/27 13:38:41;;;;;;;1.75;1.30;;;;;;;;;;10496829;28;20090;-77
2023/09/27 13:43:44;;;;;;;1.50;1.40;;;;;;;;;;10489098;28;20032;-77
2023/09/27 13:48:49;;;;;;;4.07;1.60;;;;;;;;;;10487074;28;20032;-77
2023/09/27 13:53:52;;;;;;;1.38;1.27;;;;;;;;;;10470692;28;20036;-76
2023/09/27 13:58:55;;;;;;;1.42;1.25;;;;;;;;;;10486049;28;20899;-77
2023/09/27 14:04:01;;;;;;;1.77;1.60;;;;;;;;;;10487746;28;20033;-77
2023/09/27 14:09:04;;;;;;;1.65;1.38;;;;;;;;;;10486218;28;20071;-77
2023/09/27 14:14:08;;;;;;;1.60;1.50;;;;;;;;;;10487598;28;20044;-77
2023/09/27 14:19:15;;;;;;;1.77;1.00;;;;;;;;;;10479200;28;20036;-76
2023/09/27 14:24:19;;;;;;;2.25;1.20;;;;;;;;;;10499938;28;20498;-76
2023/09/27 14:29:22;;;;;;;1.85;1.15;;;;;;;;;;10501312;28;20036;-77
2023/09/27 14:34:35;;;;;;;1.48;1.30;;;;;;;;;;10500865;28;20032;-76
2023/09/27 14:39:41;;;;;;;1.70;1.05;;;;;;;;;;10486379;28;20425;-76
2023/09/27 14:44:45;;;;;;;2.38;1.60;;;;;;;;;;10503587;28;20048;-76
2023/09/27 14:49:49;;;;;;;1.85;1.20;;;;;;;;;;10481458;28;20040;-77
2023/09/27 14:54:52;;;;;;;1.10;1.00;;;;;;;;;;10500636;28;20632;-77
2023/09/27 14:59:56;;;;;;;1.17;1.10;;;;;;;;;;10486452;28;20054;-76
2023/09/27 15:05:03;;;;;;;1.20;0.73;;;;;;;;;;10476896;28;20065;-76
2023/09/27 15:10:07;;;;;;;1.42;0.90;;;;;;;;;;10480091;28;20163;-76
2023/09/27 15:15:11;;;;;;;0.65;0.65;;;;;;;;;;10483130;28;20120;-76
2023/09/27 15:20:16;;;;;;;1.25;0.98;;;;;;;;;;10486385;28;20060;-76
2023/09/27 15:25:20;;;;;;;1.33;0.80;;;;;;;;;;10468821;28;20045;-76
2023/09/27 15:30:23;;;;;;;1.20;1.08;;;;;;;;;;10487852;28;20062;-76
2023/09/27 15:35:28;;;;;;;1.17;0.95;;;;;;;;;;10489507;28;20052;-76
2023/09/27 15:40:31;;;;;;;3.80;1.67;;;;;;;;;;10489215;28;20047;-76
2023/09/27 15:45:35;;;;;;;1.20;0.88;;;;;;;;;;10488950;28;20401;-76
2023/09/27 15:50:40;;;;;;;1.15;0.95;;;;;;;;;;10493417;28;20059;-76
2023/09/27 15:55:43;;;;;;;2.30;1.00;;;;;;;;;;10491867;28;20029;-76
2023/09/27 16:00:46;;;;;;;0.88;0.70;;;;;;;;;;10495859;28;20272;-76
2023/09/27 16:05:51;;;;;;;3.47;1.40;;;;;;;;;;10484881;28;20383;-76
2023/09/27 16:10:55;;;;;;;0.97;0.83;;;;;;;;;;10465507;28;20041;-76
2023/09/27 16:15:58;;;;;;;1.10;1.00;;;;;;;;;;10496026;28;20037;-77
2023/09/27 16:21:03;;;;;;;1.25;1.00;;;;;;;;;;10500228;28;20072;-76
2023/09/27 16:26:07;;;;;;;0.80;0.77;;;;;;;;;;10489105;28;20047;-76
2023/09/27 16:31:10;;;;;;;1.58;0.77;;;;;;;;;;10487425;28;20521;-76
2023/09/27 16:36:18;;;;;;;1.63;1.00;;;;;;;;;;10490039;28;20447;-76
2023/09/27 16:41:22;;;;;;;1.83;1.05;;;;;;;;;;10491044;28;20135;-76
2023/09/27 16:46:25;;;;;;;1.10;1.00;;;;;;;;;;10463754;28;20044;-76
2023/09/27 16:51:30;;;;;;;1.38;1.10;;;;;;;;;;10489552;28;20053;-77
2023/09/27 16:56:34;;;;;;;1.88;1.27;;;;;;;;;;10488720;28;20568;-76
2023/09/27 17:01:37;;;;;;;1.55;1.10;;;;;;;;;;10488738;28;20120;-76
2023/09/27 17:06:42;;;;;;;1.17;1.08;;;;;;;;;;10470807;28;20123;-76
2023/09/27 17:11:45;;;;;;;1.45;1.08;;;;;;;;;;10495495;28;20043;-76
2023/09/27 17:16:48;;;;;;;1.70;1.20;;;;;;;;;;10487842;28;20032;-77
2023/09/27 17:21:53;;;;;;;2.00;1.10;;;;;;;;;;10487905;28;20167;-76
2023/09/27 17:26:57;;;;;;;1.40;1.30;;;;;;;;;;10487546;28;20032;-76
2023/09/27 17:32:00;;;;;;;1.90;1.20;;;;;;;;;;10490561;28;20041;-76
2023/09/27 17:37:07;;;;;;;1.80;1.08;;;;;;;;;;10469558;28;20054;-76
2023/09/27 17:42:10;;;;;;;1.48;1.25;;;;;;;;;;10488733;28;20064;-76
2023/09/27 17:47:13;;;;;;;2.45;1.38;;;;;;;;;;10488657;28;20048;-76
2023/09/27 17:52:18;;;;;;;2.55;1.73;;;;;;;;;;10488333;28;20612;-76
2023/09/27 17:57:21;;;;;;;24.13;2.70;;;;;;;;;;10485198;28;20516;-76
2023/09/27 18:02:25;;;;;;;1.60;1.35;;;;;;;;;;10489217;28;20068;-77
2023/09/27 18:07:30;;;;;;;2.08;1.25;;;;;;;;;;10488848;28;20129;-76
2023/09/27 18:12:33;;;;;;;2.58;1.40;;;;;;;;;;10488766;28;20098;-77
2023/09/27 18:17:37;;;;;;;1.98;1.48;;;;;;;;;;10485723;28;20056;-77
2023/09/27 18:22:41;;;;;;;3.42;1.58;;;;;;;;;;10487683;28;20523;-77
2023/09/27 18:27:45;;;;;;;2.38;1.45;;;;;;;;;;10488086;28;20050;-77
2023/09/27 18:32:48;;;;;;;3.15;1.70;;;;;;;;;;10471032;28;20078;-76
2023/09/27 18:37:53;;;;;;;2.72;1.88;;;;;;;;;;10482928;28;20043;-77
2023/09/27 18:42:56;;;;;;;2.63;2.03;;;;;;;;;;10487220;28;20045;-76
2023/09/27 18:47:59;;;;;;;3.83;2.30;;;;;;;;;;10473226;28;20041;-76
2023/09/27 18:53:04;;;;;;;3.25;2.50;;;;;;;;;;10488443;28;20045;-76
2023/09/27 18:58:08;;;;;;;2.63;1.80;;;;;;;;;;10487877;28;20505;-76
2023/09/27 19:03:13;;;;;;;2.83;1.60;;;;;;;;;;10470596;28;20053;-76
2023/09/27 19:08:18;;;;;;;2.20;1.90;;;;;;;;;;10475723;28;20056;-76
2023/09/27 19:13:22;;;;;;;4.00;1.83;;;;;;;;;;10495668;28;20456;-76
2023/09/27 19:18:25;;;;;;;1.52;1.42;;;;;;;;;;10492598;28;20389;-76
2023/09/27 19:23:30;;;;;;;2.05;1.50;;;;;;;;;;10494531;28;20067;-77
2023/09/27 19:28:33;;;;;;;1.73;1.50;;;;;;;;;;10492288;28;20144;-76
2023/09/27 19:33:41;;;;;;;1.83;1.65;;;;;;;;;;10493320;28;20062;-76
2023/09/27 19:38:46;;;;;;;1.50;1.40;;;;;;;;;;10476554;28;20049;-76
2023/09/27 19:43:49;;;;;;;2.88;1.80;;;;;;;;;;10463417;22;20128;-77
2023/09/27 19:48:53;;;;;;;2.00;1.80;;;;;;;;;;10419432;28;20052;-77
2023/09/27 19:54:00;;;;;;;2.20;1.70;;;;;;;;;;10471290;28;20045;-77
2023/09/27 19:59:03;;;;;;;3.90;1.55;;;;;;;;;;10467721;28;20049;-77
2023/09/27 20:04:07;;;;;;;2.92;1.75;;;;;;;;;;10456570;28;20478;-78
2023/09/27 20:09:12;;;;;;;2.28;1.80;;;;;;;;;;10414502;28;20041;-78
2023/09/27 20:14:15;;;;;;;2.50;1.70;;;;;;;;;;10418977;28;20049;-77
2023/09/27 20:19:19;;;;;;;2.90;1.65;;;;;;;;;;10452622;28;20513;-77
2023/09/27 20:24:24;;;;;;;2.42;1.92;;;;;;;;;;10441094;28;20573;-77
2023/09/27 20:29:28;;;;;;;2.55;1.70;;;;;;;;;;10438536;28;20053;-77
2023/09/27 20:34:32;;;;;;;1.85;1.65;;;;;;;;;;10438818;28;20510;-78
2023/09/27 20:39:40;;;;;;;4.28;1.67;;;;;;;;;;10451814;28;20553;-77
2023/09/27 20:44:44;;;;;;;2.67;1.92;;;;;;;;;;10438812;28;20528;-77
2023/09/27 20:49:47;;;;;;;1.73;1.50;;;;;;;;;;10439680;28;20047;-77
2023/09/27 20:54:53;;;;;;;3.05;1.55;;;;;;;;;;10440653;28;20132;-77
2023/09/27 20:59:56;;;;;;;2.08;1.60;;;;;;;;;;10443530;28;20103;-77
2023/09/27 21:04:59;;;;;;;2.95;1.77;;;;;;;;;;10446206;28;20044;-77
2023/09/27 21:10:05;;;;;;;5.63;1.88;;;;;;;;;;10442865;28;20042;-77
2023/09/27 21:15:09;;;;;;;2.65;1.75;;;;;;;;;;10445045;28;20552;-77
2023/09/27 21:20:13;;;;;;;2.45;1.55;;;;;;;;;;10444796;28;20041;-77
2023/09/27 21:25:18;;;;;;;2.05;1.55;;;;;;;;;;10443738;28;20520;-77
2023/09/27 21:30:21;;;;;;;2.53;1.80;;;;;;;;;;10444990;28;20041;-77
2023/09/27 21:35:25;;;;;;;4.53;1.60;;;;;;;;;;10450479;28;20041;-77
2023/09/27 21:40:29;;;;;;;1.85;1.75;;;;;;;;;;10444827;28;20060;-77
2023/09/27 21:45:33;;;;;;;2.25;1.75;;;;;;;;;;10441467;28;20076;-77
2023/09/27 21:50:37;;;;;;;2.95;1.90;;;;;;;;;;10441555;28;20056;-77
2023/09/27 21:55:41;;;;;;;2.92;2.15;;;;;;;;;;10440609;28;20053;-77
2023/09/27 22:00:46;;;;;;;3.20;1.77;;;;;;;;;;10446195;28;20124;-77
2023/09/27 22:05:49;;;;;;;3.17;2.45;;;;;;;;;;10439531;28;20063;-77
2023/09/27 22:10:54;;;;;;;2.38;1.80;;;;;;;;;;10454300;28;20131;-77
2023/09/27 22:16:06;;;;;;;1.83;1.60;;;;;;;;;;10448931;28;20091;-77
2023/09/27 22:21:17;;;;;;;3.22;1.85;;;;;;;;;;10439643;28;20151;-77
2023/09/27 22:26:21;;;;;;;10.00;1.95;;;;;;;;;;10438670;28;20565;-77
2023/09/27 22:31:30;;;;;;;2.20;2.00;;;;;;;;;;10441725;28;20041;-77
2023/09/27 22:36:34;;;;;;;3.97;2.10;;;;;;;;;;10444277;28;20045;-77
2023/09/27 22:41:40;;;;;;;2.72;1.50;;;;;;;;;;10444405;28;20393;-77
2023/09/27 22:46:43;;;;;;;2.00;1.80;;;;;;;;;;10450684;28;20431;-77
2023/09/27 22:51:46;;;;;;;1.90;1.70;;;;;;;;;;10446857;28;20033;-77
2023/09/27 22:56:53;;;;;;;2.60;2.05;;;;;;;;;;10446015;28;20040;-77
2023/09/27 23:01:56;;;;;;;;;;;;;;;;;;10446518;28;20045;-77
2023/09/27 23:07:02;;;;;;;2.00;1.58;;;;;;;;;;10404027;28;19928;-77
2023/09/27 23:12:18;;;;;;;2.10;1.70;;;;;;;;;;10398639;28;20052;-77
2023/09/27 23:17:27;;;;;;;;;;;;;;;;;;10403364;28;20046;-77
2023/09/27 23:22:55;;;;;;;2.25;1.80;;;;;;;;;;10405943;28;19921;-77
2023/09/27 23:28:02;;;;;;;1.88;1.63;;;;;;;;;;10408676;28;20122;-77
2023/09/27 23:33:05;;;;;;;2.33;1.77;;;;;;;;;;10445857;28;20143;-78
2023/09/27 23:38:50;;;;;;;4.22;1.55;;;;;;;;;;10445234;28;20068;-78
2023/09/27 23:43:39;;;;;;;1.98;1.70;;;;;;;;;;10444582;28;20057;-77
2023/09/27 23:48:43;;;;;;;2.42;1.80;;;;;;;;;;10449719;28;20048;-77
2023/09/27 23:53:46;;;;;;;1.75;1.58;;;;;;;;;;10447905;28;20037;-76
2023/09/27 23:58:52;;;;;;;2.10;1.80;;;;;;;;;;10451498;28;20052;-77
